sensor_id;sensor_type;location;lat;lon;timestamp;P1;durP1;ratioP1;P2;durP2;ratioP2
34459;SDS011;20704;51.260;22.558;2023-03-01T00:01:22;61.43;;;24.37;;
34459;SDS011;20704;51.260;22.558;2023-03-01T00:03:26;51.00;;;24.23;;
34459;SDS011;20704;51.260;22.558;2023-03-01T00:05:29;68.73;;;27.57;;
34459;SDS011;20704;51.260;22.558;2023-03-01T00:07:31;55.57;;;24.17;;
34459;SDS011;20704;51.260;22.558;2023-03-01T00:09:35;61.37;;;24.37;;
34459;SDS011;20704;51.260;22.558;2023-03-01T00:11:38;54.63;;;23.23;;
34459;SDS011;20704;51.260;22.558;2023-03-01T00:13:41;56.40;;;25.13;;
34459;SDS011;20704;51.260;22.558;2023-03-01T00:15:43;60.27;;;25.03;;
34459;SDS011;20704;51.260;22.558;2023-03-01T00:17:46;53.53;;;23.77;;
34459;SDS011;20704;51.260;22.558;2023-03-01T00:19:48;54.70;;;24.43;;
34459;SDS011;20704;51.260;22.558;2023-03-01T00:21:51;58.67;;;24.20;;
34459;SDS011;20704;51.260;22.558;2023-03-01T00:23:53;64.40;;;27.00;;
34459;SDS011;20704;51.260;22.558;2023-03-01T00:25:56;58.70;;;25.93;;
34459;SDS011;20704;51.260;22.558;2023-03-01T00:27:59;58.63;;;25.80;;
34459;SDS011;20704;51.260;22.558;2023-03-01T00:30:01;65.67;;;27.00;;
34459;SDS011;20704;51.260;22.558;2023-03-01T00:32:04;54.67;;;24.80;;
34459;SDS011;20704;51.260;22.558;2023-03-01T00:34:06;58.47;;;25.37;;
34459;SDS011;20704;51.260;22.558;2023-03-01T00:36:10;61.33;;;25.47;;
34459;SDS011;20704;51.260;22.558;2023-03-01T00:38:13;69.50;;;26.80;;
34459;SDS011;20704;51.260;22.558;2023-03-01T00:40:16;63.27;;;26.50;;
34459;SDS011;20704;51.260;22.558;2023-03-01T00:42:18;52.83;;;24.57;;
34459;SDS011;20704;51.260;22.558;2023-03-01T00:44:20;51.27;;;23.10;;
34459;SDS011;20704;51.260;22.558;2023-03-01T00:46:23;54.50;;;23.70;;
34459;SDS011;20704;51.260;22.558;2023-03-01T00:48:27;55.00;;;24.37;;
34459;SDS011;20704;51.260;22.558;2023-03-01T00:50:29;51.00;;;22.67;;
34459;SDS011;20704;51.260;22.558;2023-03-01T00:52:32;51.17;;;22.30;;
34459;SDS011;20704;51.260;22.558;2023-03-01T00:54:34;46.03;;;20.60;;
34459;SDS011;20704;51.260;22.558;2023-03-01T00:56:36;48.07;;;21.43;;
34459;SDS011;20704;51.260;22.558;2023-03-01T00:58:38;53.43;;;21.67;;
34459;SDS011;20704;51.260;22.558;2023-03-01T01:00:41;55.17;;;21.90;;
34459;SDS011;20704;51.260;22.558;2023-03-01T01:02:43;43.87;;;20.90;;
34459;SDS011;20704;51.260;22.558;2023-03-01T01:04:46;47.33;;;20.47;;
34459;SDS011;20704;51.260;22.558;2023-03-01T01:06:48;44.60;;;20.63;;
34459;SDS011;20704;51.260;22.558;2023-03-01T01:08:52;47.67;;;20.57;;
34459;SDS011;20704;51.260;22.558;2023-03-01T01:10:54;46.37;;;21.63;;
34459;SDS011;20704;51.260;22.558;2023-03-01T01:12:57;50.10;;;21.33;;
34459;SDS011;20704;51.260;22.558;2023-03-01T01:14:59;41.70;;;20.93;;
34459;SDS011;20704;51.260;22.558;2023-03-01T01:17:02;50.73;;;21.63;;
34459;SDS011;20704;51.260;22.558;2023-03-01T01:19:04;43.57;;;21.27;;
34459;SDS011;20704;51.260;22.558;2023-03-01T01:21:09;43.83;;;21.17;;
34459;SDS011;20704;51.260;22.558;2023-03-01T01:23:13;40.80;;;20.13;;
34459;SDS011;20704;51.260;22.558;2023-03-01T01:25:15;47.33;;;20.73;;
34459;SDS011;20704;51.260;22.558;2023-03-01T01:27:17;44.57;;;19.47;;
34459;SDS011;20704;51.260;22.558;2023-03-01T01:29:20;41.40;;;19.63;;
34459;SDS011;20704;51.260;22.558;2023-03-01T01:31:22;38.77;;;18.83;;
34459;SDS011;20704;51.260;22.558;2023-03-01T01:33:26;41.73;;;20.67;;
34459;SDS011;20704;51.260;22.558;2023-03-01T01:35:28;44.40;;;19.53;;
34459;SDS011;20704;51.260;22.558;2023-03-01T01:37:31;43.07;;;20.03;;
34459;SDS011;20704;51.260;22.558;2023-03-01T01:39:34;42.63;;;19.87;;
34459;SDS011;20704;51.260;22.558;2023-03-01T01:41:37;43.13;;;19.33;;
34459;SDS011;20704;51.260;22.558;2023-03-01T01:43:43;44.80;;;20.23;;
34459;SDS011;20704;51.260;22.558;2023-03-01T01:45:52;39.77;;;18.60;;
34459;SDS011;20704;51.260;22.558;2023-03-01T01:48:07;43.63;;;19.97;;
34459;SDS011;20704;51.260;22.558;2023-03-01T01:50:16;40.83;;;19.57;;
34459;SDS011;20704;51.260;22.558;2023-03-01T01:52:22;40.47;;;17.90;;
34459;SDS011;20704;51.260;22.558;2023-03-01T01:54:30;40.60;;;19.70;;
34459;SDS011;20704;51.260;22.558;2023-03-01T01:56:38;46.73;;;20.20;;
34459;SDS011;20704;51.260;22.558;2023-03-01T01:58:45;50.10;;;20.83;;
34459;SDS011;20704;51.260;22.558;2023-03-01T02:00:49;41.43;;;20.20;;
34459;SDS011;20704;51.260;22.558;2023-03-01T02:02:55;43.83;;;20.70;;
34459;SDS011;20704;51.260;22.558;2023-03-01T02:05:16;40.90;;;19.23;;
34459;SDS011;20704;51.260;22.558;2023-03-01T02:07:28;38.33;;;17.37;;
34459;SDS011;20704;51.260;22.558;2023-03-01T02:09:31;44.73;;;19.93;;
34459;SDS011;20704;51.260;22.558;2023-03-01T02:11:35;38.17;;;18.37;;
34459;SDS011;20704;51.260;22.558;2023-03-01T02:13:39;45.10;;;19.90;;
34459;SDS011;20704;51.260;22.558;2023-03-01T02:15:42;46.57;;;19.33;;
34459;SDS011;20704;51.260;22.558;2023-03-01T02:17:45;48.87;;;20.27;;
34459;SDS011;20704;51.260;22.558;2023-03-01T02:22:24;39.33;;;18.17;;
34459;SDS011;20704;51.260;22.558;2023-03-01T02:24:42;40.80;;;17.20;;
34459;SDS011;20704;51.260;22.558;2023-03-01T02:26:54;41.47;;;19.67;;
34459;SDS011;20704;51.260;22.558;2023-03-01T02:28:57;41.90;;;18.53;;
34459;SDS011;20704;51.260;22.558;2023-03-01T02:31:00;35.23;;;18.10;;
34459;SDS011;20704;51.260;22.558;2023-03-01T02:33:22;41.27;;;19.17;;
34459;SDS011;20704;51.260;22.558;2023-03-01T02:35:25;40.83;;;17.97;;
34459;SDS011;20704;51.260;22.558;2023-03-01T02:37:28;36.53;;;18.97;;
34459;SDS011;20704;51.260;22.558;2023-03-01T02:39:31;38.57;;;18.80;;
34459;SDS011;20704;51.260;22.558;2023-03-01T02:41:39;41.77;;;18.63;;
34459;SDS011;20704;51.260;22.558;2023-03-01T02:43:44;36.73;;;18.50;;
34459;SDS011;20704;51.260;22.558;2023-03-01T02:45:50;45.37;;;19.57;;
34459;SDS011;20704;51.260;22.558;2023-03-01T02:47:54;39.37;;;18.77;;
34459;SDS011;20704;51.260;22.558;2023-03-01T02:49:58;39.63;;;19.40;;
34459;SDS011;20704;51.260;22.558;2023-03-01T02:52:23;46.67;;;18.27;;
34459;SDS011;20704;51.260;22.558;2023-03-01T02:56:46;35.70;;;17.77;;
34459;SDS011;20704;51.260;22.558;2023-03-01T02:58:52;43.67;;;19.77;;
34459;SDS011;20704;51.260;22.558;2023-03-01T03:00:54;40.27;;;18.90;;
34459;SDS011;20704;51.260;22.558;2023-03-01T03:02:58;39.93;;;18.13;;
34459;SDS011;20704;51.260;22.558;2023-03-01T03:05:04;42.33;;;18.07;;
34459;SDS011;20704;51.260;22.558;2023-03-01T03:07:12;38.10;;;17.97;;
34459;SDS011;20704;51.260;22.558;2023-03-01T03:09:16;35.30;;;18.20;;
34459;SDS011;20704;51.260;22.558;2023-03-01T03:11:19;39.80;;;18.50;;
34459;SDS011;20704;51.260;22.558;2023-03-01T03:13:22;38.63;;;18.63;;
34459;SDS011;20704;51.260;22.558;2023-03-01T03:15:30;35.57;;;17.37;;
34459;SDS011;20704;51.260;22.558;2023-03-01T03:17:33;41.93;;;18.90;;
34459;SDS011;20704;51.260;22.558;2023-03-01T03:19:35;44.40;;;17.93;;
34459;SDS011;20704;51.260;22.558;2023-03-01T03:21:37;39.17;;;17.47;;
34459;SDS011;20704;51.260;22.558;2023-03-01T03:23:40;38.80;;;18.60;;
34459;SDS011;20704;51.260;22.558;2023-03-01T03:25:42;43.17;;;18.77;;
34459;SDS011;20704;51.260;22.558;2023-03-01T03:27:45;44.07;;;20.87;;
34459;SDS011;20704;51.260;22.558;2023-03-01T03:29:48;37.97;;;18.40;;
34459;SDS011;20704;51.260;22.558;2023-03-01T03:31:51;40.40;;;19.23;;
34459;SDS011;20704;51.260;22.558;2023-03-01T03:33:53;34.50;;;19.03;;
34459;SDS011;20704;51.260;22.558;2023-03-01T03:35:56;39.67;;;21.07;;
34459;SDS011;20704;51.260;22.558;2023-03-01T03:37:59;44.00;;;18.77;;
34459;SDS011;20704;51.260;22.558;2023-03-01T03:40:05;46.40;;;19.60;;
34459;SDS011;20704;51.260;22.558;2023-03-01T03:42:17;38.50;;;17.23;;
34459;SDS011;20704;51.260;22.558;2023-03-01T03:44:20;37.37;;;18.03;;
34459;SDS011;20704;51.260;22.558;2023-03-01T03:46:22;41.83;;;20.50;;
34459;SDS011;20704;51.260;22.558;2023-03-01T03:48:25;38.03;;;18.20;;
34459;SDS011;20704;51.260;22.558;2023-03-01T03:50:28;39.17;;;18.67;;
34459;SDS011;20704;51.260;22.558;2023-03-01T03:52:30;40.23;;;17.80;;
34459;SDS011;20704;51.260;22.558;2023-03-01T03:54:33;42.73;;;18.73;;
34459;SDS011;20704;51.260;22.558;2023-03-01T03:56:35;45.13;;;18.57;;
34459;SDS011;20704;51.260;22.558;2023-03-01T03:58:39;41.67;;;18.70;;
34459;SDS011;20704;51.260;22.558;2023-03-01T04:00:42;48.63;;;20.73;;
34459;SDS011;20704;51.260;22.558;2023-03-01T04:02:46;43.63;;;19.53;;
34459;SDS011;20704;51.260;22.558;2023-03-01T04:04:52;40.03;;;19.07;;
34459;SDS011;20704;51.260;22.558;2023-03-01T04:06:54;45.73;;;19.73;;
34459;SDS011;20704;51.260;22.558;2023-03-01T04:08:56;43.87;;;18.40;;
34459;SDS011;20704;51.260;22.558;2023-03-01T04:11:02;37.67;;;19.50;;
34459;SDS011;20704;51.260;22.558;2023-03-01T04:13:25;41.53;;;19.53;;
34459;SDS011;20704;51.260;22.558;2023-03-01T04:15:28;40.93;;;18.67;;
34459;SDS011;20704;51.260;22.558;2023-03-01T04:17:30;41.70;;;20.47;;
34459;SDS011;20704;51.260;22.558;2023-03-01T04:19:32;43.90;;;19.73;;
34459;SDS011;20704;51.260;22.558;2023-03-01T04:21:37;39.47;;;20.00;;
34459;SDS011;20704;51.260;22.558;2023-03-01T04:23:40;40.03;;;18.60;;
34459;SDS011;20704;51.260;22.558;2023-03-01T04:25:45;44.43;;;18.93;;
34459;SDS011;20704;51.260;22.558;2023-03-01T04:27:55;33.37;;;17.50;;
34459;SDS011;20704;51.260;22.558;2023-03-01T04:29:57;36.00;;;17.63;;
34459;SDS011;20704;51.260;22.558;2023-03-01T04:32:00;43.00;;;20.50;;
34459;SDS011;20704;51.260;22.558;2023-03-01T04:34:02;41.03;;;18.77;;
34459;SDS011;20704;51.260;22.558;2023-03-01T04:36:05;46.37;;;18.87;;
34459;SDS011;20704;51.260;22.558;2023-03-01T04:38:10;39.90;;;18.80;;
34459;SDS011;20704;51.260;22.558;2023-03-01T04:40:12;41.80;;;19.17;;
34459;SDS011;20704;51.260;22.558;2023-03-01T04:42:18;38.70;;;18.63;;
34459;SDS011;20704;51.260;22.558;2023-03-01T04:44:20;39.10;;;18.73;;
34459;SDS011;20704;51.260;22.558;2023-03-01T04:46:22;39.00;;;18.63;;
34459;SDS011;20704;51.260;22.558;2023-03-01T04:48:27;49.90;;;19.73;;
34459;SDS011;20704;51.260;22.558;2023-03-01T04:50:29;45.47;;;21.50;;
34459;SDS011;20704;51.260;22.558;2023-03-01T04:52:32;39.40;;;19.67;;
34459;SDS011;20704;51.260;22.558;2023-03-01T04:54:34;44.63;;;19.50;;
34459;SDS011;20704;51.260;22.558;2023-03-01T04:56:38;47.87;;;20.40;;
34459;SDS011;20704;51.260;22.558;2023-03-01T04:58:42;46.03;;;20.73;;
34459;SDS011;20704;51.260;22.558;2023-03-01T05:00:45;43.30;;;20.97;;
34459;SDS011;20704;51.260;22.558;2023-03-01T05:02:51;35.73;;;17.47;;
34459;SDS011;20704;51.260;22.558;2023-03-01T05:04:56;37.87;;;19.30;;
34459;SDS011;20704;51.260;22.558;2023-03-01T05:06:58;39.63;;;16.40;;
34459;SDS011;20704;51.260;22.558;2023-03-01T05:09:01;37.13;;;18.50;;
34459;SDS011;20704;51.260;22.558;2023-03-01T05:11:04;43.03;;;20.27;;
34459;SDS011;20704;51.260;22.558;2023-03-01T05:13:07;37.53;;;17.60;;
34459;SDS011;20704;51.260;22.558;2023-03-01T05:15:09;38.87;;;17.37;;
34459;SDS011;20704;51.260;22.558;2023-03-01T05:17:12;36.67;;;17.53;;
34459;SDS011;20704;51.260;22.558;2023-03-01T05:19:14;38.80;;;19.30;;
34459;SDS011;20704;51.260;22.558;2023-03-01T05:21:20;37.57;;;18.73;;
34459;SDS011;20704;51.260;22.558;2023-03-01T05:23:22;42.27;;;19.63;;
34459;SDS011;20704;51.260;22.558;2023-03-01T05:25:26;38.97;;;18.27;;
34459;SDS011;20704;51.260;22.558;2023-03-01T05:27:34;39.67;;;19.70;;
34459;SDS011;20704;51.260;22.558;2023-03-01T05:29:37;34.73;;;17.07;;
34459;SDS011;20704;51.260;22.558;2023-03-01T05:31:40;33.60;;;17.00;;
34459;SDS011;20704;51.260;22.558;2023-03-01T05:33:43;36.83;;;17.83;;
34459;SDS011;20704;51.260;22.558;2023-03-01T05:35:45;32.43;;;15.90;;
34459;SDS011;20704;51.260;22.558;2023-03-01T05:37:50;31.27;;;16.47;;
34459;SDS011;20704;51.260;22.558;2023-03-01T05:39:52;36.50;;;17.77;;
34459;SDS011;20704;51.260;22.558;2023-03-01T05:41:55;36.83;;;17.20;;
34459;SDS011;20704;51.260;22.558;2023-03-01T05:43:59;41.80;;;18.03;;
34459;SDS011;20704;51.260;22.558;2023-03-01T05:46:02;37.73;;;18.47;;
34459;SDS011;20704;51.260;22.558;2023-03-01T05:48:04;37.93;;;17.40;;
34459;SDS011;20704;51.260;22.558;2023-03-01T05:50:07;43.87;;;18.23;;
34459;SDS011;20704;51.260;22.558;2023-03-01T05:52:11;34.07;;;16.87;;
34459;SDS011;20704;51.260;22.558;2023-03-01T05:54:13;36.00;;;17.27;;
34459;SDS011;20704;51.260;22.558;2023-03-01T05:56:16;36.43;;;16.33;;
34459;SDS011;20704;51.260;22.558;2023-03-01T05:58:19;38.87;;;18.30;;
34459;SDS011;20704;51.260;22.558;2023-03-01T06:00:21;42.33;;;20.90;;
34459;SDS011;20704;51.260;22.558;2023-03-01T06:02:24;33.50;;;17.23;;
34459;SDS011;20704;51.260;22.558;2023-03-01T06:04:26;40.30;;;18.60;;
34459;SDS011;20704;51.260;22.558;2023-03-01T06:06:28;36.27;;;18.10;;
34459;SDS011;20704;51.260;22.558;2023-03-01T06:08:31;33.80;;;18.10;;
34459;SDS011;20704;51.260;22.558;2023-03-01T06:10:34;34.37;;;17.60;;
34459;SDS011;20704;51.260;22.558;2023-03-01T06:12:37;36.93;;;18.83;;
34459;SDS011;20704;51.260;22.558;2023-03-01T06:14:40;33.30;;;18.43;;
34459;SDS011;20704;51.260;22.558;2023-03-01T06:16:42;37.28;;;19.67;;
34459;SDS011;20704;51.260;22.558;2023-03-01T06:18:44;43.38;;;21.25;;
34459;SDS011;20704;51.260;22.558;2023-03-01T06:20:52;36.63;;;20.30;;
34459;SDS011;20704;51.260;22.558;2023-03-01T06:22:55;33.75;;;19.27;;
34459;SDS011;20704;51.260;22.558;2023-03-01T06:24:58;38.42;;;19.35;;
34459;SDS011;20704;51.260;22.558;2023-03-01T06:27:01;39.58;;;20.25;;
34459;SDS011;20704;51.260;22.558;2023-03-01T06:29:03;34.08;;;20.40;;
34459;SDS011;20704;51.260;22.558;2023-03-01T06:31:10;37.53;;;19.55;;
34459;SDS011;20704;51.260;22.558;2023-03-01T06:33:12;33.45;;;18.92;;
34459;SDS011;20704;51.260;22.558;2023-03-01T06:35:18;36.33;;;20.48;;
34459;SDS011;20704;51.260;22.558;2023-03-01T06:37:20;30.67;;;19.23;;
34459;SDS011;20704;51.260;22.558;2023-03-01T06:39:23;35.05;;;18.98;;
34459;SDS011;20704;51.260;22.558;2023-03-01T06:41:25;36.63;;;19.55;;
34459;SDS011;20704;51.260;22.558;2023-03-01T06:43:27;37.40;;;20.70;;
34459;SDS011;20704;51.260;22.558;2023-03-01T06:45:29;35.13;;;21.90;;
34459;SDS011;20704;51.260;22.558;2023-03-01T06:47:32;35.10;;;20.98;;
34459;SDS011;20704;51.260;22.558;2023-03-01T06:49:37;38.50;;;22.65;;
34459;SDS011;20704;51.260;22.558;2023-03-01T06:51:40;36.05;;;22.08;;
34459;SDS011;20704;51.260;22.558;2023-03-01T06:53:42;42.20;;;23.65;;
34459;SDS011;20704;51.260;22.558;2023-03-01T06:55:44;41.33;;;24.50;;
34459;SDS011;20704;51.260;22.558;2023-03-01T06:57:46;36.90;;;23.73;;
34459;SDS011;20704;51.260;22.558;2023-03-01T06:59:49;34.75;;;22.60;;
34459;SDS011;20704;51.260;22.558;2023-03-01T07:01:51;35.70;;;23.30;;
34459;SDS011;20704;51.260;22.558;2023-03-01T07:03:54;34.08;;;21.50;;
34459;SDS011;20704;51.260;22.558;2023-03-01T07:05:56;37.90;;;21.85;;
34459;SDS011;20704;51.260;22.558;2023-03-01T07:07:59;32.78;;;20.80;;
34459;SDS011;20704;51.260;22.558;2023-03-01T07:10:01;33.33;;;22.15;;
34459;SDS011;20704;51.260;22.558;2023-03-01T07:12:03;31.90;;;20.77;;
34459;SDS011;20704;51.260;22.558;2023-03-01T07:14:06;29.85;;;21.27;;
34459;SDS011;20704;51.260;22.558;2023-03-01T07:16:08;35.80;;;22.33;;
34459;SDS011;20704;51.260;22.558;2023-03-01T07:18:10;31.08;;;20.98;;
34459;SDS011;20704;51.260;22.558;2023-03-01T07:20:13;33.80;;;21.42;;
34459;SDS011;20704;51.260;22.558;2023-03-01T07:22:16;37.20;;;22.58;;
34459;SDS011;20704;51.260;22.558;2023-03-01T07:24:19;35.53;;;22.77;;
34459;SDS011;20704;51.260;22.558;2023-03-01T07:26:21;34.80;;;22.58;;
34459;SDS011;20704;51.260;22.558;2023-03-01T07:28:26;36.45;;;22.02;;
34459;SDS011;20704;51.260;22.558;2023-03-01T07:30:29;31.90;;;20.85;;
34459;SDS011;20704;51.260;22.558;2023-03-01T07:32:31;32.15;;;20.58;;
34459;SDS011;20704;51.260;22.558;2023-03-01T07:34:33;31.40;;;19.90;;
34459;SDS011;20704;51.260;22.558;2023-03-01T07:36:36;30.95;;;20.67;;
34459;SDS011;20704;51.260;22.558;2023-03-01T07:38:39;28.70;;;19.73;;
34459;SDS011;20704;51.260;22.558;2023-03-01T07:40:41;35.60;;;19.85;;
34459;SDS011;20704;51.260;22.558;2023-03-01T07:42:43;30.13;;;19.80;;
34459;SDS011;20704;51.260;22.558;2023-03-01T07:44:45;33.15;;;19.00;;
34459;SDS011;20704;51.260;22.558;2023-03-01T07:46:48;33.50;;;20.20;;
34459;SDS011;20704;51.260;22.558;2023-03-01T07:48:50;29.23;;;17.92;;
34459;SDS011;20704;51.260;22.558;2023-03-01T07:50:52;33.72;;;19.58;;
34459;SDS011;20704;51.260;22.558;2023-03-01T07:52:55;32.28;;;19.52;;
34459;SDS011;20704;51.260;22.558;2023-03-01T07:54:57;30.67;;;19.17;;
34459;SDS011;20704;51.260;22.558;2023-03-01T07:56:59;33.88;;;17.98;;
34459;SDS011;20704;51.260;22.558;2023-03-01T07:59:01;30.92;;;17.95;;
34459;SDS011;20704;51.260;22.558;2023-03-01T08:01:04;25.10;;;16.80;;
34459;SDS011;20704;51.260;22.558;2023-03-01T08:03:08;29.48;;;16.38;;
34459;SDS011;20704;51.260;22.558;2023-03-01T08:05:11;31.52;;;16.40;;
34459;SDS011;20704;51.260;22.558;2023-03-01T08:07:13;28.75;;;15.63;;
34459;SDS011;20704;51.260;22.558;2023-03-01T08:09:16;25.75;;;14.30;;
34459;SDS011;20704;51.260;22.558;2023-03-01T08:11:19;26.38;;;14.23;;
34459;SDS011;20704;51.260;22.558;2023-03-01T08:13:22;27.95;;;15.25;;
34459;SDS011;20704;51.260;22.558;2023-03-01T08:15:24;23.98;;;13.82;;
34459;SDS011;20704;51.260;22.558;2023-03-01T08:17:27;26.50;;;15.02;;
34459;SDS011;20704;51.260;22.558;2023-03-01T08:19:30;27.60;;;14.80;;
34459;SDS011;20704;51.260;22.558;2023-03-01T08:21:32;21.98;;;13.15;;
34459;SDS011;20704;51.260;22.558;2023-03-01T08:23:36;24.30;;;13.07;;
34459;SDS011;20704;51.260;22.558;2023-03-01T08:25:39;24.27;;;14.20;;
34459;SDS011;20704;51.260;22.558;2023-03-01T08:27:41;23.30;;;14.18;;
34459;SDS011;20704;51.260;22.558;2023-03-01T08:29:44;19.70;;;12.27;;
34459;SDS011;20704;51.260;22.558;2023-03-01T08:31:46;26.52;;;14.02;;
34459;SDS011;20704;51.260;22.558;2023-03-01T08:33:51;23.17;;;12.98;;
34459;SDS011;20704;51.260;22.558;2023-03-01T08:36:07;21.98;;;12.00;;
34459;SDS011;20704;51.260;22.558;2023-03-01T08:38:09;20.95;;;12.45;;
34459;SDS011;20704;51.260;22.558;2023-03-01T08:40:12;20.70;;;12.30;;
34459;SDS011;20704;51.260;22.558;2023-03-01T08:42:17;23.90;;;12.20;;
34459;SDS011;20704;51.260;22.558;2023-03-01T08:44:20;21.02;;;11.70;;
34459;SDS011;20704;51.260;22.558;2023-03-01T08:46:22;24.73;;;12.25;;
34459;SDS011;20704;51.260;22.558;2023-03-01T08:48:25;23.20;;;12.02;;
34459;SDS011;20704;51.260;22.558;2023-03-01T08:50:31;22.65;;;13.13;;
34459;SDS011;20704;51.260;22.558;2023-03-01T08:52:34;19.45;;;11.98;;
34459;SDS011;20704;51.260;22.558;2023-03-01T08:54:36;22.25;;;11.55;;
34459;SDS011;20704;51.260;22.558;2023-03-01T08:56:38;26.73;;;15.25;;
34459;SDS011;20704;51.260;22.558;2023-03-01T08:58:43;22.92;;;12.32;;
34459;SDS011;20704;51.260;22.558;2023-03-01T09:00:46;34.00;;;13.65;;
34459;SDS011;20704;51.260;22.558;2023-03-01T09:02:49;31.42;;;13.63;;
34459;SDS011;20704;51.260;22.558;2023-03-01T09:04:51;25.60;;;13.20;;
34459;SDS011;20704;51.260;22.558;2023-03-01T09:06:54;25.25;;;13.65;;
34459;SDS011;20704;51.260;22.558;2023-03-01T09:08:56;24.67;;;12.27;;
34459;SDS011;20704;51.260;22.558;2023-03-01T09:11:00;25.23;;;14.25;;
34459;SDS011;20704;51.260;22.558;2023-03-01T09:13:04;19.83;;;12.48;;
34459;SDS011;20704;51.260;22.558;2023-03-01T09:15:06;22.73;;;13.38;;
34459;SDS011;20704;51.260;22.558;2023-03-01T09:17:09;22.77;;;13.15;;
34459;SDS011;20704;51.260;22.558;2023-03-01T09:19:11;25.48;;;13.15;;
34459;SDS011;20704;51.260;22.558;2023-03-01T09:21:15;24.30;;;13.65;;
34459;SDS011;20704;51.260;22.558;2023-03-01T09:23:25;21.00;;;13.57;;
34459;SDS011;20704;51.260;22.558;2023-03-01T09:25:27;19.08;;;11.25;;
34459;SDS011;20704;51.260;22.558;2023-03-01T09:27:30;19.20;;;12.13;;
34459;SDS011;20704;51.260;22.558;2023-03-01T09:29:32;18.58;;;10.70;;
34459;SDS011;20704;51.260;22.558;2023-03-01T09:31:34;20.58;;;11.45;;
34459;SDS011;20704;51.260;22.558;2023-03-01T09:33:37;21.20;;;10.60;;
34459;SDS011;20704;51.260;22.558;2023-03-01T09:35:40;20.80;;;10.80;;
34459;SDS011;20704;51.260;22.558;2023-03-01T09:37:48;20.50;;;11.43;;
34459;SDS011;20704;51.260;22.558;2023-03-01T09:39:51;21.73;;;11.50;;
34459;SDS011;20704;51.260;22.558;2023-03-01T09:43:58;18.13;;;11.45;;
34459;SDS011;20704;51.260;22.558;2023-03-01T09:46:06;20.90;;;11.23;;
34459;SDS011;20704;51.260;22.558;2023-03-01T09:48:21;18.35;;;11.98;;
34459;SDS011;20704;51.260;22.558;2023-03-01T09:50:28;22.38;;;12.23;;
34459;SDS011;20704;51.260;22.558;2023-03-01T09:53:23;19.33;;;12.10;;
34459;SDS011;20704;51.260;22.558;2023-03-01T09:55:04;18.92;;;11.40;;
34459;SDS011;20704;51.260;22.558;2023-03-01T09:57:20;18.58;;;11.00;;
34459;SDS011;20704;51.260;22.558;2023-03-01T09:59:32;20.42;;;10.80;;
34459;SDS011;20704;51.260;22.558;2023-03-01T10:04:19;20.77;;;11.80;;
34459;SDS011;20704;51.260;22.558;2023-03-01T10:06:29;17.00;;;10.57;;
34459;SDS011;20704;51.260;22.558;2023-03-01T10:11:03;18.45;;;10.13;;
34459;SDS011;20704;51.260;22.558;2023-03-01T10:13:10;18.65;;;10.43;;
34459;SDS011;20704;51.260;22.558;2023-03-01T10:15:25;19.48;;;10.05;;
34459;SDS011;20704;51.260;22.558;2023-03-01T10:22:28;20.92;;;10.50;;
34459;SDS011;20704;51.260;22.558;2023-03-01T10:24:34;18.92;;;10.65;;
34459;SDS011;20704;51.260;22.558;2023-03-01T10:26:48;21.98;;;11.32;;
34459;SDS011;20704;51.260;22.558;2023-03-01T10:30:57;15.38;;;9.02;;
34459;SDS011;20704;51.260;22.558;2023-03-01T10:33:01;17.85;;;9.88;;
34459;SDS011;20704;51.260;22.558;2023-03-01T10:35:28;21.05;;;11.23;;
34459;SDS011;20704;51.260;22.558;2023-03-01T10:37:34;19.05;;;10.23;;
34459;SDS011;20704;51.260;22.558;2023-03-01T10:44:50;17.17;;;9.88;;
34459;SDS011;20704;51.260;22.558;2023-03-01T10:46:58;17.10;;;9.63;;
34459;SDS011;20704;51.260;22.558;2023-03-01T10:49:19;16.98;;;8.90;;
34459;SDS011;20704;51.260;22.558;2023-03-01T10:51:23;17.05;;;9.20;;
34459;SDS011;20704;51.260;22.558;2023-03-01T10:55:34;15.90;;;9.05;;
34459;SDS011;20704;51.260;22.558;2023-03-01T10:59:43;15.50;;;8.55;;
34459;SDS011;20704;51.260;22.558;2023-03-01T11:01:45;13.40;;;8.05;;
34459;SDS011;20704;51.260;22.558;2023-03-01T11:04:31;16.48;;;8.00;;
34459;SDS011;20704;51.260;22.558;2023-03-01T11:06:21;15.30;;;7.20;;
34459;SDS011;20704;51.260;22.558;2023-03-01T11:10:35;14.77;;;8.38;;
34459;SDS011;20704;51.260;22.558;2023-03-01T11:12:38;14.52;;;8.40;;
34459;SDS011;20704;51.260;22.558;2023-03-01T11:14:48;13.43;;;7.43;;
34459;SDS011;20704;51.260;22.558;2023-03-01T11:16:58;13.85;;;7.88;;
34459;SDS011;20704;51.260;22.558;2023-03-01T11:21:15;16.13;;;7.88;;
34459;SDS011;20704;51.260;22.558;2023-03-01T11:23:17;16.40;;;8.82;;
34459;SDS011;20704;51.260;22.558;2023-03-01T11:25:23;12.57;;;7.90;;
34459;SDS011;20704;51.260;22.558;2023-03-01T11:27:29;16.45;;;8.75;;
34459;SDS011;20704;51.260;22.558;2023-03-01T11:29:38;16.52;;;7.90;;
34459;SDS011;20704;51.260;22.558;2023-03-01T11:31:49;16.55;;;8.00;;
34459;SDS011;20704;51.260;22.558;2023-03-01T11:34:10;15.10;;;7.97;;
34459;SDS011;20704;51.260;22.558;2023-03-01T11:36:26;17.55;;;8.70;;
34459;SDS011;20704;51.260;22.558;2023-03-01T11:38:57;13.60;;;8.35;;
34459;SDS011;20704;51.260;22.558;2023-03-01T11:41:08;19.27;;;9.95;;
34459;SDS011;20704;51.260;22.558;2023-03-01T11:43:22;18.35;;;10.02;;
34459;SDS011;20704;51.260;22.558;2023-03-01T11:46:07;15.57;;;8.52;;
34459;SDS011;20704;51.260;22.558;2023-03-01T11:48:28;14.52;;;8.13;;
34459;SDS011;20704;51.260;22.558;2023-03-01T11:50:50;12.88;;;7.90;;
34459;SDS011;20704;51.260;22.558;2023-03-01T11:52:57;18.77;;;8.35;;
34459;SDS011;20704;51.260;22.558;2023-03-01T11:55:14;16.98;;;8.38;;
34459;SDS011;20704;51.260;22.558;2023-03-01T11:57:22;19.23;;;9.25;;
34459;SDS011;20704;51.260;22.558;2023-03-01T12:02:01;16.67;;;8.02;;
34459;SDS011;20704;51.260;22.558;2023-03-01T12:37:32;17.92;;;8.60;;
34459;SDS011;20704;51.260;22.558;2023-03-01T12:50:57;14.60;;;7.75;;
34459;SDS011;20704;51.260;22.558;2023-03-01T12:53:04;15.68;;;8.27;;
34459;SDS011;20704;51.260;22.558;2023-03-01T12:55:08;11.98;;;7.22;;
34459;SDS011;20704;51.260;22.558;2023-03-01T12:57:57;12.40;;;6.50;;
34459;SDS011;20704;51.260;22.558;2023-03-01T13:03:02;13.95;;;7.57;;
34459;SDS011;20704;51.260;22.558;2023-03-01T13:05:56;15.85;;;7.80;;
34459;SDS011;20704;51.260;22.558;2023-03-01T13:14:53;11.85;;;6.38;;
34459;SDS011;20704;51.260;22.558;2023-03-01T13:16:56;11.30;;;6.68;;
34459;SDS011;20704;51.260;22.558;2023-03-01T13:21:31;12.85;;;6.30;;
34459;SDS011;20704;51.260;22.558;2023-03-01T13:23:34;13.95;;;6.68;;
34459;SDS011;20704;51.260;22.558;2023-03-01T13:30:39;9.45;;;5.93;;
34459;SDS011;20704;51.260;22.558;2023-03-01T13:32:41;14.30;;;7.28;;
34459;SDS011;20704;51.260;22.558;2023-03-01T13:34:46;9.93;;;5.78;;
34459;SDS011;20704;51.260;22.558;2023-03-01T13:37:19;11.70;;;7.07;;
34459;SDS011;20704;51.260;22.558;2023-03-01T13:39:27;15.18;;;6.75;;
34459;SDS011;20704;51.260;22.558;2023-03-01T13:43:45;9.88;;;5.55;;